sensor_id;sensor_type;location;lat;lon;timestamp;pressure;altitude;pressure_sealevel;temperature;humidity
22440;BME280;11387;51.612;7.210;2024-01-15T00:00:02;99248.81;;;0.33;100.00
22440;BME280;11387;51.612;7.210;2024-01-15T00:02:28;99238.06;;;0.23;100.00
22440;BME280;11387;51.612;7.210;2024-01-15T00:04:52;99242.63;;;0.23;100.00
22440;BME280;11387;51.612;7.210;2024-01-15T00:07:15;99242.91;;;0.26;100.00
22440;BME280;11387;51.612;7.210;2024-01-15T00:09:39;99243.19;;;0.30;100.00
22440;BME280;11387;51.612;7.210;2024-01-15T00:12:03;99236.47;;;0.38;100.00
22440;BME280;11387;51.612;7.210;2024-01-15T00:14:27;99230.81;;;0.24;100.00
22440;BME280;11387;51.612;7.210;2024-01-15T00:16:51;99243.44;;;0.33;100.00
22440;BME280;11387;51.612;7.210;2024-01-15T00:19:18;99232.16;;;0.37;100.00
22440;BME280;11387;51.612;7.210;2024-01-15T00:21:42;99229.47;;;0.37;100.00
22440;BME280;11387;51.612;7.210;2024-01-15T00:24:06;99240.50;;;0.40;100.00
22440;BME280;11387;51.612;7.210;2024-01-15T00:26:29;99224.63;;;0.39;100.00
22440;BME280;11387;51.612;7.210;2024-01-15T00:28:53;99226.75;;;0.31;100.00
22440;BME280;11387;51.612;7.210;2024-01-15T00:31:17;99218.72;;;0.26;100.00
22440;BME280;11387;51.612;7.210;2024-01-15T00:33:41;99217.63;;;0.32;100.00
22440;BME280;11387;51.612;7.210;2024-01-15T00:36:07;99218.47;;;0.43;100.00
22440;BME280;11387;51.612;7.210;2024-01-15T00:38:30;99214.97;;;0.43;100.00
22440;BME280;11387;51.612;7.210;2024-01-15T00:40:54;99217.09;;;0.30;100.00
22440;BME280;11387;51.612;7.210;2024-01-15T00:43:18;99218.69;;;0.31;100.00
22440;BME280;11387;51.612;7.210;2024-01-15T00:45:42;99218.16;;;0.34;100.00
22440;BME280;11387;51.612;7.210;2024-01-15T00:48:06;99211.19;;;0.44;100.00
22440;BME280;11387;51.612;7.210;2024-01-15T00:50:31;99210.66;;;0.42;100.00
22440;BME280;11387;51.612;7.210;2024-01-15T00:52:56;99212.81;;;0.40;100.00
22440;BME280;11387;51.612;7.210;2024-01-15T00:55:19;99214.94;;;0.38;100.00
22440;BME280;11387;51.612;7.210;2024-01-15T00:57:43;99220.63;;;0.46;100.00
22440;BME280;11387;51.612;7.210;2024-01-15T01:00:07;99212.81;;;0.40;100.00
22440;BME280;11387;51.612;7.210;2024-01-15T01:02:31;99209.56;;;0.32;100.00
22440;BME280;11387;51.612;7.210;2024-01-15T01:05:05;99203.94;;;0.49;100.00
22440;BME280;11387;51.612;7.210;2024-01-15T01:07:29;99216.84;;;0.47;100.00
22440;BME280;11387;51.612;7.210;2024-01-15T01:09:55;99209.56;;;0.43;100.00
22440;BME280;11387;51.612;7.210;2024-01-15T01:12:18;99204.72;;;0.40;100.00
22440;BME280;11387;51.612;7.210;2024-01-15T01:14:42;99194.50;;;0.37;100.00
22440;BME280;11387;51.612;7.210;2024-01-15T01:17:05;99189.13;;;0.37;100.00
22440;BME280;11387;51.612;7.210;2024-01-15T01:19:29;99189.91;;;0.32;100.00
22440;BME280;11387;51.612;7.210;2024-01-15T01:21:53;99189.41;;;0.45;100.00
22440;BME280;11387;51.612;7.210;2024-01-15T01:24:16;99188.06;;;0.43;100.00
22440;BME280;11387;51.612;7.210;2024-01-15T01:26:41;99184.28;;;0.44;100.00
22440;BME280;11387;51.612;7.210;2024-01-15T01:29:04;99187.50;;;0.41;100.00
22440;BME280;11387;51.612;7.210;2024-01-15T01:31:28;99186.97;;;0.33;100.00
22440;BME280;11387;51.612;7.210;2024-01-15T01:33:51;99193.19;;;0.44;100.00
22440;BME280;11387;51.612;7.210;2024-01-15T01:36:15;99187.53;;;0.46;100.00
22440;BME280;11387;51.612;7.210;2024-01-15T01:38:39;99180.78;;;0.43;100.00
22440;BME280;11387;51.612;7.210;2024-01-15T01:41:03;99185.91;;;0.45;100.00
22440;BME280;11387;51.612;7.210;2024-01-15T01:43:28;99189.69;;;0.44;100.00
22440;BME280;11387;51.612;7.210;2024-01-15T01:46:05;99181.59;;;0.28;100.00
22440;BME280;11387;51.612;7.210;2024-01-15T01:48:30;99188.84;;;0.33;100.00
22440;BME280;11387;51.612;7.210;2024-01-15T01:50:57;99184.53;;;0.37;100.00
22440;BME280;11387;51.612;7.210;2024-01-15T01:53:21;99172.44;;;0.19;100.00
22440;BME280;11387;51.612;7.210;2024-01-15T01:55:45;99184.28;;;0.33;100.00
22440;BME280;11387;51.612;7.210;2024-01-15T01:58:09;99185.34;;;0.32;100.00
22440;BME280;11387;51.612;7.210;2024-01-15T02:00:35;99179.16;;;0.37;100.00
22440;BME280;11387;51.612;7.210;2024-01-15T02:02:59;99187.78;;;0.29;100.00
22440;BME280;11387;51.612;7.210;2024-01-15T02:05:23;99182.66;;;0.22;100.00
22440;BME280;11387;51.612;7.210;2024-01-15T02:07:47;99186.69;;;0.25;100.00
22440;BME280;11387;51.612;7.210;2024-01-15T02:10:10;99185.88;;;0.19;100.00
22440;BME280;11387;51.612;7.210;2024-01-15T02:12:34;99191.25;;;0.24;100.00
22440;BME280;11387;51.612;7.210;2024-01-15T02:14:57;99188.59;;;0.29;100.00
22440;BME280;11387;51.612;7.210;2024-01-15T02:17:22;99186.16;;;0.28;100.00
22440;BME280;11387;51.612;7.210;2024-01-15T02:19:46;99199.06;;;0.26;100.00
22440;BME280;11387;51.612;7.210;2024-01-15T02:22:10;99204.72;;;0.34;100.00
22440;BME280;11387;51.612;7.210;2024-01-15T02:24:35;99203.13;;;0.28;100.00
22440;BME280;11387;51.612;7.210;2024-01-15T02:26:59;99184.28;;;0.23;100.00
22440;BME280;11387;51.612;7.210;2024-01-15T02:29:22;99185.31;;;0.17;100.00
22440;BME280;11387;51.612;7.210;2024-01-15T02:31:46;99189.63;;;0.18;100.00
22440;BME280;11387;51.612;7.210;2024-01-15T02:34:10;99193.94;;;0.19;100.00
22440;BME280;11387;51.612;7.210;2024-01-15T02:36:33;99200.41;;;0.23;100.00
22440;BME280;11387;51.612;7.210;2024-01-15T02:38:57;99184.28;;;0.33;100.00
22440;BME280;11387;51.612;7.210;2024-01-15T02:41:22;99189.66;;;0.28;100.00
22440;BME280;11387;51.612;7.210;2024-01-15T02:43:45;99190.19;;;0.20;100.00
22440;BME280;11387;51.612;7.210;2024-01-15T02:46:09;99192.06;;;0.20;100.00
22440;BME280;11387;51.612;7.210;2024-01-15T02:48:33;99199.31;;;0.19;100.00
22440;BME280;11387;51.612;7.210;2024-01-15T02:50:57;99190.16;;;0.15;100.00
22440;BME280;11387;51.612;7.210;2024-01-15T02:53:20;99184.75;;;0.05;100.00
22440;BME280;11387;51.612;7.210;2024-01-15T02:55:44;99187.97;;;0.07;100.00
22440;BME280;11387;51.612;7.210;2024-01-15T02:58:09;99183.41;;;-0.03;100.00
22440;BME280;11387;51.612;7.210;2024-01-15T03:00:32;99183.16;;;-0.01;100.00
22440;BME280;11387;51.612;7.210;2024-01-15T03:02:56;99183.69;;;0.06;100.00
22440;BME280;11387;51.612;7.210;2024-01-15T03:05:20;99196.84;;;0.03;100.00
22440;BME280;11387;51.612;7.210;2024-01-15T03:07:43;99192.81;;;0.00;100.00
22440;BME280;11387;51.612;7.210;2024-01-15T03:10:07;99204.09;;;0.02;100.00
22440;BME280;11387;51.612;7.210;2024-01-15T03:12:31;99199.84;;;0.16;100.00
22440;BME280;11387;51.612;7.210;2024-01-15T03:14:56;99209.00;;;0.15;100.00
22440;BME280;11387;51.612;7.210;2024-01-15T03:17:20;99209.50;;;0.12;100.00
22440;BME280;11387;51.612;7.210;2024-01-15T03:19:43;99192.31;;;0.13;100.00
22440;BME280;11387;51.612;7.210;2024-01-15T03:22:07;99215.19;;;0.16;100.00
22440;BME280;11387;51.612;7.210;2024-01-15T03:24:31;99200.13;;;0.15;100.00
22440;BME280;11387;51.612;7.210;2024-01-15T03:26:55;99200.91;;;0.10;100.00
22440;BME280;11387;51.612;7.210;2024-01-15T03:29:18;99195.28;;;0.17;100.00
22440;BME280;11387;51.612;7.210;2024-01-15T03:31:43;99200.94;;;0.20;100.00
22440;BME280;11387;51.612;7.210;2024-01-15T03:34:07;99200.38;;;0.13;100.00
22440;BME280;11387;51.612;7.210;2024-01-15T03:36:30;99201.44;;;0.12;100.00
22440;BME280;11387;51.612;7.210;2024-01-15T03:38:54;99193.94;;;0.14;100.00
22440;BME280;11387;51.612;7.210;2024-01-15T03:41:17;99184.53;;;0.17;100.00
22440;BME280;11387;51.612;7.210;2024-01-15T03:43:41;99207.38;;;0.14;100.00
22440;BME280;11387;51.612;7.210;2024-01-15T03:46:04;99198.22;;;0.15;100.00
22440;BME280;11387;51.612;7.210;2024-01-15T03:48:29;99188.00;;;0.12;100.00
22440;BME280;11387;51.612;7.210;2024-01-15T03:50:53;99189.66;;;0.23;100.00
22440;BME280;11387;51.612;7.210;2024-01-15T03:53:16;99183.22;;;0.29;100.00
22440;BME280;11387;51.612;7.210;2024-01-15T03:55:40;99182.13;;;0.36;100.00
22440;BME280;11387;51.612;7.210;2024-01-15T03:58:03;99180.22;;;0.31;100.00
22440;BME280;11387;51.612;7.210;2024-01-15T04:00:27;99162.22;;;0.26;100.00
22440;BME280;11387;51.612;7.210;2024-01-15T04:02:50;99152.00;;;0.23;100.00
22440;BME280;11387;51.612;7.210;2024-01-15T04:05:15;99157.34;;;0.13;100.00
22440;BME280;11387;51.612;7.210;2024-01-15T04:07:39;99153.31;;;0.11;100.00
22440;BME280;11387;51.612;7.210;2024-01-15T04:10:03;99157.09;;;0.20;100.00
22440;BME280;11387;51.612;7.210;2024-01-15T04:12:27;99159.25;;;0.18;100.00
22440;BME280;11387;51.612;7.210;2024-01-15T04:14:50;99164.63;;;0.23;100.00
22440;BME280;11387;51.612;7.210;2024-01-15T04:17:17;99158.47;;;0.27;100.00
22440;BME280;11387;51.612;7.210;2024-01-15T04:19:43;99154.94;;;0.32;100.00
22440;BME280;11387;51.612;7.210;2024-01-15T04:22:08;99154.13;;;0.11;100.00
22440;BME280;11387;51.612;7.210;2024-01-15T04:24:32;99147.66;;;0.12;100.00
22440;BME280;11387;51.612;7.210;2024-01-15T04:26:55;99158.97;;;0.14;100.00
22440;BME280;11387;51.612;7.210;2024-01-15T04:29:19;99152.00;;;0.23;100.00
22440;BME280;11387;51.612;7.210;2024-01-15T04:31:42;99154.94;;;0.22;100.00
22440;BME280;11387;51.612;7.210;2024-01-15T04:34:06;99142.03;;;0.19;100.00
22440;BME280;11387;51.612;7.210;2024-01-15T04:36:30;99139.09;;;0.25;100.00
22440;BME280;11387;51.612;7.210;2024-01-15T04:38:55;99140.19;;;0.29;100.00
22440;BME280;11387;51.612;7.210;2024-01-15T04:41:18;99133.72;;;0.30;100.00
22440;BME280;11387;51.612;7.210;2024-01-15T04:43:42;99136.41;;;0.41;100.00
22440;BME280;11387;51.612;7.210;2024-01-15T04:46:06;99140.69;;;0.37;100.00
22440;BME280;11387;51.612;7.210;2024-01-15T04:48:29;99131.81;;;0.36;100.00
22440;BME280;11387;51.612;7.210;2024-01-15T04:50:53;99128.84;;;0.32;100.00
22440;BME280;11387;51.612;7.210;2024-01-15T04:53:16;99129.94;;;0.31;100.00
22440;BME280;11387;51.612;7.210;2024-01-15T04:55:42;99124.28;;;0.43;100.00
22440;BME280;11387;51.612;7.210;2024-01-15T04:58:06;99132.09;;;0.45;100.00
22440;BME280;11387;51.612;7.210;2024-01-15T05:00:29;99124.56;;;0.42;100.00
22440;BME280;11387;51.612;7.210;2024-01-15T05:02:53;99131.28;;;0.39;100.00
22440;BME280;11387;51.612;7.210;2024-01-15T05:05:18;99107.63;;;0.36;100.00
22440;BME280;11387;51.612;7.210;2024-01-15T05:07:42;99108.69;;;0.35;100.00
22440;BME280;11387;51.612;7.210;2024-01-15T05:10:06;99113.25;;;0.40;100.00
22440;BME280;11387;51.612;7.210;2024-01-15T05:12:46;99123.22;;;0.39;100.00
22440;BME280;11387;51.612;7.210;2024-01-15T05:15:09;99109.25;;;0.47;100.00
22440;BME280;11387;51.612;7.210;2024-01-15T05:17:33;99116.50;;;0.52;100.00
22440;BME280;11387;51.612;7.210;2024-01-15T05:19:56;99108.44;;;0.52;100.00
22440;BME280;11387;51.612;7.210;2024-01-15T05:22:20;99107.91;;;0.50;100.00
22440;BME280;11387;51.612;7.210;2024-01-15T05:24:43;99101.97;;;0.48;100.00
22440;BME280;11387;51.612;7.210;2024-01-15T05:27:07;99111.41;;;0.55;100.00
22440;BME280;11387;51.612;7.210;2024-01-15T05:29:32;99114.88;;;0.51;100.00
22440;BME280;11387;51.612;7.210;2024-01-15T05:31:56;99105.47;;;0.58;100.00
22440;BME280;11387;51.612;7.210;2024-01-15T05:34:23;99109.25;;;0.57;100.00
22440;BME280;11387;51.612;7.210;2024-01-15T05:36:47;99100.09;;;0.58;100.00
22440;BME280;11387;51.612;7.210;2024-01-15T05:39:10;99107.31;;;0.63;100.00
22440;BME280;11387;51.612;7.210;2024-01-15T05:41:34;99093.91;;;0.58;100.00
22440;BME280;11387;51.612;7.210;2024-01-15T05:43:58;99105.75;;;0.52;100.00
22440;BME280;11387;51.612;7.210;2024-01-15T05:46:23;99096.56;;;0.63;100.00
22440;BME280;11387;51.612;7.210;2024-01-15T05:48:47;99100.91;;;0.59;100.00
22440;BME280;11387;51.612;7.210;2024-01-15T05:51:12;99102.75;;;0.63;100.00
22440;BME280;11387;51.612;7.210;2024-01-15T05:53:35;99104.66;;;0.58;100.00
22440;BME280;11387;51.612;7.210;2024-01-15T05:56:02;99097.66;;;0.57;100.00
22440;BME280;11387;51.612;7.210;2024-01-15T05:58:26;99104.09;;;0.66;100.00
22440;BME280;11387;51.612;7.210;2024-01-15T06:00:50;99107.91;;;0.60;100.00
22440;BME280;11387;51.612;7.210;2024-01-15T06:03:15;99101.41;;;0.66;100.00
22440;BME280;11387;51.612;7.210;2024-01-15T06:05:39;99095.75;;;0.67;100.00
22440;BME280;11387;51.612;7.210;2024-01-15T06:08:03;99094.41;;;0.65;100.00
22440;BME280;11387;51.612;7.210;2024-01-15T06:10:26;99094.94;;;0.62;100.00
22440;BME280;11387;51.612;7.210;2024-01-15T06:12:50;99089.03;;;0.70;100.00
22440;BME280;11387;51.612;7.210;2024-01-15T06:15:13;99084.19;;;0.62;100.00
22440;BME280;11387;51.612;7.210;2024-01-15T06:17:37;99082.31;;;0.62;100.00
22440;BME280;11387;51.612;7.210;2024-01-15T06:20:02;99078.25;;;0.65;100.00
22440;BME280;11387;51.612;7.210;2024-01-15T06:22:26;99072.06;;;0.75;100.00
22440;BME280;11387;51.612;7.210;2024-01-15T06:24:50;99088.22;;;0.75;100.00
22440;BME280;11387;51.612;7.210;2024-01-15T06:27:13;99087.13;;;0.76;100.00
22440;BME280;11387;51.612;7.210;2024-01-15T06:29:37;99092.78;;;0.74;100.00
22440;BME280;11387;51.612;7.210;2024-01-15T06:32:01;99087.69;;;0.78;100.00
22440;BME280;11387;51.612;7.210;2024-01-15T06:34:25;99086.88;;;0.77;100.00
22440;BME280;11387;51.612;7.210;2024-01-15T06:36:49;99085.78;;;0.78;100.00
22440;BME280;11387;51.612;7.210;2024-01-15T06:39:13;99079.88;;;0.76;100.00
22440;BME280;11387;51.612;7.210;2024-01-15T06:41:37;99079.34;;;0.74;100.00
22440;BME280;11387;51.612;7.210;2024-01-15T06:44:04;99077.44;;;0.75;100.00
22440;BME280;11387;51.612;7.210;2024-01-15T06:46:28;99074.22;;;0.73;100.00
22440;BME280;11387;51.612;7.210;2024-01-15T06:48:51;99076.38;;;0.81;100.00
22440;BME280;11387;51.612;7.210;2024-01-15T06:51:15;99075.03;;;0.83;100.00
22440;BME280;11387;51.612;7.210;2024-01-15T06:53:40;99080.13;;;0.90;100.00
22440;BME280;11387;51.612;7.210;2024-01-15T06:56:04;99083.63;;;0.80;100.00
22440;BME280;11387;51.612;7.210;2024-01-15T06:58:28;99089.56;;;0.87;100.00
22440;BME280;11387;51.612;7.210;2024-01-15T07:00:51;99081.47;;;0.87;100.00
22440;BME280;11387;51.612;7.210;2024-01-15T07:03:15;99084.97;;;0.83;100.00
22440;BME280;11387;51.612;7.210;2024-01-15T07:05:38;99083.91;;;0.84;100.00
22440;BME280;11387;51.612;7.210;2024-01-15T07:08:02;99086.31;;;0.85;100.00
22440;BME280;11387;51.612;7.210;2024-01-15T07:10:27;99091.16;;;0.88;100.00
22440;BME280;11387;51.612;7.210;2024-01-15T07:12:52;99083.91;;;0.84;100.00
22440;BME280;11387;51.612;7.210;2024-01-15T07:15:16;99093.88;;;0.78;100.00
22440;BME280;11387;51.612;7.210;2024-01-15T07:17:43;99097.09;;;0.80;100.00
22440;BME280;11387;51.612;7.210;2024-01-15T07:20:07;99090.09;;;0.84;100.00
22440;BME280;11387;51.612;7.210;2024-01-15T07:22:31;99078.25;;;0.85;100.00
22440;BME280;11387;51.612;7.210;2024-01-15T07:24:55;99084.16;;;0.87;100.00
22440;BME280;11387;51.612;7.210;2024-01-15T07:27:20;99079.59;;;0.83;100.00
22440;BME280;11387;51.612;7.210;2024-01-15T07:29:44;99080.41;;;0.83;100.00
22440;BME280;11387;51.612;7.210;2024-01-15T07:32:08;99079.84;;;0.91;100.00
22440;BME280;11387;51.612;7.210;2024-01-15T07:34:33;99079.59;;;0.88;100.00
22440;BME280;11387;51.612;7.210;2024-01-15T07:36:57;99079.28;;;0.99;100.00
22440;BME280;11387;51.612;7.210;2024-01-15T07:39:21;99078.75;;;0.92;100.00
22440;BME280;11387;51.612;7.210;2024-01-15T07:41:45;99077.94;;;0.97;100.00
22440;BME280;11387;51.612;7.210;2024-01-15T07:44:12;99081.69;;;0.96;100.00
22440;BME280;11387;51.612;7.210;2024-01-15T07:46:36;99084.97;;;0.88;100.00
22440;BME280;11387;51.612;7.210;2024-01-15T07:48:59;99083.38;;;0.82;100.00
22440;BME280;11387;51.612;7.210;2024-01-15T07:51:23;99091.19;;;0.73;100.00
22440;BME280;11387;51.612;7.210;2024-01-15T07:53:47;99092.53;;;0.71;100.00
22440;BME280;11387;51.612;7.210;2024-01-15T07:56:11;99084.22;;;0.57;100.00
22440;BME280;11387;51.612;7.210;2024-01-15T07:58:34;99089.06;;;0.60;100.00
22440;BME280;11387;51.612;7.210;2024-01-15T08:00:59;99093.09;;;0.57;100.00
22440;BME280;11387;51.612;7.210;2024-01-15T08:03:23;99092.28;;;0.57;100.00
22440;BME280;11387;51.612;7.210;2024-01-15T08:05:47;99088.75;;;0.61;100.00
22440;BME280;11387;51.612;7.210;2024-01-15T08:08:12;99087.41;;;0.64;100.00
22440;BME280;11387;51.612;7.210;2024-01-15T08:10:36;99087.97;;;0.56;100.00
22440;BME280;11387;51.612;7.210;2024-01-15T08:12:59;99080.44;;;0.53;100.00
22440;BME280;11387;51.612;7.210;2024-01-15T08:15:23;99089.56;;;0.67;100.00
22440;BME280;11387;51.612;7.210;2024-01-15T08:17:54;99087.94;;;0.71;100.00
22440;BME280;11387;51.612;7.210;2024-01-15T08:20:17;99080.41;;;0.68;100.00
22440;BME280;11387;51.612;7.210;2024-01-15T08:22:41;99093.38;;;0.61;100.00
22440;BME280;11387;51.612;7.210;2024-01-15T08:25:05;99086.34;;;0.65;100.00
22440;BME280;11387;51.612;7.210;2024-01-15T08:27:29;99079.63;;;0.62;100.00
22440;BME280;11387;51.612;7.210;2024-01-15T08:29:52;99078.56;;;0.58;100.00
22440;BME280;11387;51.612;7.210;2024-01-15T08:32:17;99079.09;;;0.55;100.00
22440;BME280;11387;51.612;7.210;2024-01-15T08:34:42;99077.50;;;0.54;100.00
22440;BME280;11387;51.612;7.210;2024-01-15T08:37:06;99081.53;;;0.57;100.00
22440;BME280;11387;51.612;7.210;2024-01-15T08:39:30;99080.19;;;0.59;100.00
22440;BME280;11387;51.612;7.210;2024-01-15T08:41:53;99082.34;;;0.57;100.00
22440;BME280;11387;51.612;7.210;2024-01-15T08:44:22;99085.78;;;0.73;100.00
22440;BME280;11387;51.612;7.210;2024-01-15T08:46:46;99085.53;;;0.75;100.00
22440;BME280;11387;51.612;7.210;2024-01-15T08:49:10;99084.72;;;0.79;100.00
22440;BME280;11387;51.612;7.210;2024-01-15T08:51:35;99097.09;;;0.80;100.00
22440;BME280;11387;51.612;7.210;2024-01-15T08:54:00;99096.28;;;0.70;100.00
22440;BME280;11387;51.612;7.210;2024-01-15T08:56:24;99090.66;;;0.66;100.00
22440;BME280;11387;51.612;7.210;2024-01-15T08:58:49;99090.91;;;0.64;100.00
22440;BME280;11387;51.612;7.210;2024-01-15T09:01:13;99103.03;;;0.67;100.00
22440;BME280;11387;51.612;7.210;2024-01-15T09:03:37;99098.72;;;0.71;100.00
22440;BME280;11387;51.612;7.210;2024-01-15T09:06:00;99097.09;;;0.70;100.00
22440;BME280;11387;51.612;7.210;2024-01-15T09:08:25;99099.78;;;0.70;100.00
22440;BME280;11387;51.612;7.210;2024-01-15T09:10:49;99096.84;;;0.77;100.00
22440;BME280;11387;51.612;7.210;2024-01-15T09:13:13;99084.50;;;0.60;100.00
22440;BME280;11387;51.612;7.210;2024-01-15T09:15:37;99094.94;;;0.62;100.00
22440;BME280;11387;51.612;7.210;2024-01-15T09:18:00;99092.25;;;0.62;100.00
22440;BME280;11387;51.612;7.210;2024-01-15T09:20:29;99100.59;;;0.65;100.00
22440;BME280;11387;51.612;7.210;2024-01-15T09:22:53;99104.66;;;0.53;100.00
22440;BME280;11387;51.612;7.210;2024-01-15T09:25:18;99106.56;;;0.52;100.00
22440;BME280;11387;51.612;7.210;2024-01-15T09:27:42;99101.72;;;0.49;100.00
22440;BME280;11387;51.612;7.210;2024-01-15T09:30:07;99110.06;;;0.58;100.00
22440;BME280;11387;51.612;7.210;2024-01-15T09:32:34;99102.78;;;0.58;100.00
22440;BME280;11387;51.612;7.210;2024-01-15T09:34:58;99101.97;;;0.53;100.00
22440;BME280;11387;51.612;7.210;2024-01-15T09:37:22;99099.81;;;0.55;100.00
22440;BME280;11387;51.612;7.210;2024-01-15T09:40:08;99099.25;;;0.63;100.00
22440;BME280;11387;51.612;7.210;2024-01-15T09:42:34;99101.41;;;0.66;100.00
22440;BME280;11387;51.612;7.210;2024-01-15T09:44:59;99105.72;;;0.67;100.00
22440;BME280;11387;51.612;7.210;2024-01-15T09:47:23;99089.03;;;0.65;100.00
22440;BME280;11387;51.612;7.210;2024-01-15T09:49:48;99098.19;;;0.64;100.00
22440;BME280;11387;51.612;7.210;2024-01-15T09:52:12;99104.63;;;0.63;100.00
22440;BME280;11387;51.612;7.210;2024-01-15T09:54:38;99111.38;;;0.65;100.00
22440;BME280;11387;51.612;7.210;2024-01-15T09:57:03;99101.13;;;0.67;100.00
22440;BME280;11387;51.612;7.210;2024-01-15T09:59:28;99106.78;;;0.71;100.00
22440;BME280;11387;51.612;7.210;2024-01-15T10:01:53;99104.38;;;0.70;100.00
22440;BME280;11387;51.612;7.210;2024-01-15T10:04:20;99106.78;;;0.71;100.00
22440;BME280;11387;51.612;7.210;2024-01-15T10:06:45;99098.19;;;0.74;100.00
22440;BME280;11387;51.612;7.210;2024-01-15T10:09:12;99098.72;;;0.71;100.00
22440;BME280;11387;51.612;7.210;2024-01-15T10:11:39;99101.13;;;0.73;100.00
22440;BME280;11387;51.612;7.210;2024-01-15T10:14:04;99102.47;;;0.70;100.00
22440;BME280;11387;51.612;7.210;2024-01-15T10:16:30;99103.03;;;0.67;100.00
22440;BME280;11387;51.612;7.210;2024-01-15T10:18:53;99098.47;;;0.57;100.00
22440;BME280;11387;51.612;7.210;2024-01-15T10:21:18;99095.50;;;0.64;100.00
22440;BME280;11387;51.612;7.210;2024-01-15T10:23:42;99091.97;;;0.74;100.00
22440;BME280;11387;51.612;7.210;2024-01-15T10:26:06;99097.09;;;0.80;100.00
22440;BME280;11387;51.612;7.210;2024-01-15T10:28:30;99095.75;;;0.83;100.00
22440;BME280;11387;51.612;7.210;2024-01-15T10:30:58;99088.44;;;0.98;100.00
22440;BME280;11387;51.612;7.210;2024-01-15T10:33:24;99089.75;;;1.06;100.00
22440;BME280;11387;51.612;7.210;2024-01-15T10:35:48;99090.56;;;1.12;100.00
22440;BME280;11387;51.612;7.210;2024-01-15T10:38:12;99106.75;;;1.01;100.00
22440;BME280;11387;51.612;7.210;2024-01-15T10:40:36;99109.47;;;0.91;100.00
22440;BME280;11387;51.612;7.210;2024-01-15T10:43:01;99107.31;;;0.83;100.00
22440;BME280;11387;51.612;7.210;2024-01-15T10:45:25;99122.41;;;0.79;100.00
22440;BME280;11387;51.612;7.210;2024-01-15T10:47:49;99107.31;;;0.68;100.00
22440;BME280;11387;51.612;7.210;2024-01-15T10:50:15;99114.31;;;0.84;100.00
22440;BME280;11387;51.612;7.210;2024-01-15T10:52:40;99114.00;;;1.06;100.00
22440;BME280;11387;51.612;7.210;2024-01-15T10:55:06;99111.31;;;0.96;100.00
22440;BME280;11387;51.612;7.210;2024-01-15T10:57:41;99104.84;;;1.02;100.00
22440;BME280;11387;51.612;7.210;2024-01-15T11:00:09;99098.72;;;1.56;100.00
22440;BME280;11387;51.612;7.210;2024-01-15T11:02:38;99100.97;;;1.93;100.00
22440;BME280;11387;51.612;7.210;2024-01-15T11:05:02;99093.97;;;1.87;100.00
22440;BME280;11387;51.612;7.210;2024-01-15T11:07:32;99107.72;;;1.90;100.00
22440;BME280;11387;51.612;7.210;2024-01-15T11:09:56;99102.06;;;1.87;100.00
22440;BME280;11387;51.612;7.210;2024-01-15T11:12:21;99110.28;;;1.66;100.00
22440;BME280;11387;51.612;7.210;2024-01-15T11:14:46;99101.25;;;1.32;100.00
22440;BME280;11387;51.612;7.210;2024-01-15T11:17:13;99092.34;;;1.42;100.00
22440;BME280;11387;51.612;7.210;2024-01-15T11:19:38;99096.31;;;1.54;100.00
22440;BME280;11387;51.612;7.210;2024-01-15T11:22:03;99091.00;;;1.34;100.00
22440;BME280;11387;51.612;7.210;2024-01-15T11:24:36;99084.03;;;1.23;100.00
22440;BME280;11387;51.612;7.210;2024-01-15T11:27:01;99088.94;;;1.11;100.00
22440;BME280;11387;51.612;7.210;2024-01-15T11:29:30;99094.88;;;1.02;100.00
22440;BME280;11387;51.612;7.210;2024-01-15T11:31:58;99087.06;;;1.06;100.00
22440;BME280;11387;51.612;7.210;2024-01-15T11:34:53;99099.19;;;1.09;100.00
22440;BME280;11387;51.612;7.210;2024-01-15T11:37:17;99090.50;;;1.27;100.00
22440;BME280;11387;51.612;7.210;2024-01-15T11:39:43;99094.22;;;1.41;100.00
22440;BME280;11387;51.612;7.210;2024-01-15T11:42:06;99096.03;;;1.56;100.00
22440;BME280;11387;51.612;7.210;2024-01-15T11:44:30;99088.84;;;1.85;100.00
22440;BME280;11387;51.612;7.210;2024-01-15T11:46:57;99088.09;;;1.80;100.00
22440;BME280;11387;51.612;7.210;2024-01-15T11:49:31;99092.94;;;1.83;100.00
22440;BME280;11387;51.612;7.210;2024-01-15T11:52:00;99090.19;;;1.88;100.00
22440;BME280;11387;51.612;7.210;2024-01-15T11:54:25;99096.41;;;1.88;100.00
22440;BME280;11387;51.612;7.210;2024-01-15T11:56:57;99085.94;;;1.82;100.00
22440;BME280;11387;51.612;7.210;2024-01-15T11:59:23;99090.34;;;1.57;100.00
22440;BME280;11387;51.612;7.210;2024-01-15T12:01:46;99084.50;;;1.50;100.00
22440;BME280;11387;51.612;7.210;2024-01-15T12:04:10;99080.00;;;1.25;100.00
22440;BME280;11387;51.612;7.210;2024-01-15T12:06:39;99087.13;;;1.55;100.00
22440;BME280;11387;51.612;7.210;2024-01-15T12:09:06;99088.16;;;1.69;100.00
22440;BME280;11387;51.612;7.210;2024-01-15T12:11:31;99094.09;;;1.66;100.00
22440;BME280;11387;51.612;7.210;2024-01-15T12:13:57;99078.69;;;1.77;100.00
22440;BME280;11387;51.612;7.210;2024-01-15T12:16:22;99091.88;;;1.79;100.00
22440;BME280;11387;51.612;7.210;2024-01-15T12:18:46;99087.22;;;1.89;100.00
22440;BME280;11387;51.612;7.210;2024-01-15T12:21:10;99088.38;;;2.17;100.00
22440;BME280;11387;51.612;7.210;2024-01-15T12:23:34;99099.13;;;2.22;100.00
22440;BME280;11387;51.612;7.210;2024-01-15T12:25:58;99090.34;;;2.12;100.00
22440;BME280;11387;51.612;7.210;2024-01-15T12:28:21;99081.97;;;2.13;100.00
22440;BME280;11387;51.612;7.210;2024-01-15T12:30:47;99097.53;;;2.21;100.00
22440;BME280;11387;51.612;7.210;2024-01-15T12:33:13;99084.84;;;2.22;100.00
22440;BME280;11387;51.612;7.210;2024-01-15T12:35:37;99087.50;;;2.27;100.00
22440;BME280;11387;51.612;7.210;2024-01-15T12:38:01;99091.19;;;2.02;100.00
22440;BME280;11387;51.612;7.210;2024-01-15T12:40:26;99091.81;;;1.89;100.00
22440;BME280;11387;51.612;7.210;2024-01-15T12:42:51;99107.53;;;1.77;100.00
22440;BME280;11387;51.612;7.210;2024-01-15T12:45:15;99102.72;;;1.68;100.00